createdAt,value
2022-10-06T00:00:04.902Z,85.79
2022-10-06T00:02:35.603Z,84.10
2022-10-06T00:05:03.339Z,83.67
2022-10-06T00:07:31.105Z,82.89
2022-10-06T00:09:58.774Z,82.73
2022-10-06T00:12:26.584Z,82.07
2022-10-06T00:14:55.594Z,83.26
2022-10-06T00:17:23.263Z,82.15
2022-10-06T00:19:50.984Z,81.78
2022-10-06T00:22:19.123Z,82.37
2022-10-06T00:24:46.808Z,81.95
2022-10-06T00:27:14.512Z,82.66
2022-10-06T00:29:42.530Z,83.42
2022-10-06T00:32:11.529Z,83.19
2022-10-06T00:34:39.186Z,84.35
2022-10-06T00:37:06.864Z,83.18
2022-10-06T00:39:34.476Z,83.67
2022-10-06T00:42:02.177Z,84.23
2022-10-06T00:44:29.957Z,83.31
2022-10-06T00:46:58.302Z,83.93
2022-10-06T00:49:31.128Z,82.42
2022-10-06T00:52:03.933Z,81.73
2022-10-06T00:54:33.208Z,82.81
2022-10-06T00:57:01.180Z,82.47
2022-10-06T00:59:28.816Z,83.07
2022-10-06T01:02:01.758Z,82.27
2022-10-06T01:04:35.201Z,81.54
2022-10-06T01:07:03.414Z,81.74
2022-10-06T01:09:32.537Z,82.49
2022-10-06T01:12:04.197Z,83.54
2022-10-06T01:14:33.078Z,83.76
2022-10-06T01:17:07.666Z,84.07
2022-10-06T01:19:48.585Z,84.25
2022-10-06T01:22:17.970Z,84.02
2022-10-06T01:24:52.473Z,83.09
2022-10-06T01:27:22.275Z,84.31
2022-10-06T01:29:52.845Z,84.23
2022-10-06T01:32:20.596Z,84.12
2022-10-06T01:34:48.328Z,83.96
2022-10-06T01:37:16.207Z,84.93
2022-10-06T01:39:44.412Z,84.61
2022-10-06T01:42:13.445Z,84.55
2022-10-06T01:44:41.093Z,83.98
2022-10-06T01:47:09.230Z,82.54
2022-10-06T01:49:36.878Z,84.18
2022-10-06T01:52:05.194Z,83.39
2022-10-06T01:54:32.997Z,82.90
2022-10-06T01:57:00.740Z,85.28
2022-10-06T01:59:29.789Z,84.59
2022-10-06T02:01:57.582Z,84.40
2022-10-06T02:04:25.382Z,83.84
2022-10-06T02:06:55.593Z,83.78
2022-10-06T02:09:23.668Z,83.74
2022-10-06T02:11:51.728Z,83.32
2022-10-06T02:14:19.760Z,84.17
2022-10-06T02:16:48.808Z,84.18
2022-10-06T02:19:16.477Z,84.46
2022-10-06T02:21:44.092Z,84.21
2022-10-06T02:24:11.717Z,84.98
2022-10-06T02:26:39.882Z,84.43
2022-10-06T02:29:07.820Z,84.07
2022-10-06T02:31:35.527Z,85.44
2022-10-06T02:34:04.676Z,85.92
2022-10-06T02:36:32.503Z,85.19
2022-10-06T02:39:00.715Z,84.50
2022-10-06T02:41:28.435Z,84.65
2022-10-06T02:43:56.144Z,84.73
2022-10-06T02:46:24.299Z,83.85
2022-10-06T02:48:53.804Z,82.51
2022-10-06T02:51:24.509Z,83.75
2022-10-06T02:53:52.862Z,83.89
2022-10-06T02:56:23.027Z,82.61
2022-10-06T02:58:51.921Z,84.16
2022-10-06T03:01:21.418Z,83.98
2022-10-06T03:03:49.617Z,84.17
2022-10-06T03:06:22.938Z,83.97
2022-10-06T03:08:52.897Z,83.17
2022-10-06T03:11:22.529Z,83.55
2022-10-06T03:13:51.392Z,84.73
2022-10-06T03:16:21.144Z,84.08
2022-10-06T03:18:50.003Z,82.31
2022-10-06T03:21:18.274Z,81.80
2022-10-06T03:23:47.657Z,81.99
2022-10-06T03:26:17.653Z,80.97
2022-10-06T03:28:45.844Z,81.32
2022-10-06T03:31:14.435Z,80.96
2022-10-06T03:33:42.628Z,82.34
2022-10-06T03:36:13.671Z,81.16
2022-10-06T03:38:41.726Z,81.44
2022-10-06T03:41:11.349Z,81.79
2022-10-06T03:43:41.168Z,82.11
2022-10-06T03:46:10.953Z,81.83
2022-10-06T03:48:39.209Z,82.39
2022-10-06T03:51:09.425Z,82.59
2022-10-06T03:53:37.456Z,82.63
2022-10-06T03:56:07.764Z,81.73
2022-10-06T03:58:37.420Z,82.19
2022-10-06T04:01:08.670Z,83.61
2022-10-06T04:03:37.222Z,82.72
2022-10-06T04:06:06.945Z,83.31
2022-10-06T04:08:36.185Z,84.55
2022-10-06T04:11:07.784Z,84.38
2022-10-06T04:13:36.200Z,83.37
2022-10-06T04:16:17.208Z,82.97
2022-10-06T04:18:46.283Z,83.86
2022-10-06T04:21:14.438Z,84.55
2022-10-06T04:23:42.636Z,83.62
2022-10-06T04:26:13.704Z,84.55
2022-10-06T04:28:44.015Z,85.87
2022-10-06T04:31:17.324Z,85.69
2022-10-06T04:33:45.761Z,85.69
2022-10-06T04:36:16.786Z,83.49
2022-10-06T04:38:44.873Z,86.00
2022-10-06T04:41:14.247Z,84.63
2022-10-06T04:43:42.337Z,84.63
2022-10-06T04:46:37.558Z,85.69
2022-10-06T04:49:00.705Z,85.09
2022-10-06T04:51:28.891Z,83.98
2022-10-06T04:53:56.561Z,84.18
2022-10-06T04:56:26.102Z,83.89
2022-10-06T04:58:55.426Z,83.78
2022-10-06T05:01:25.794Z,83.87
2022-10-06T05:03:55.904Z,85.09
2022-10-06T05:06:26.424Z,84.46
2022-10-06T05:08:56.032Z,83.80
2022-10-06T05:11:26.023Z,83.45
2022-10-06T05:13:55.936Z,82.77
2022-10-06T05:16:25.478Z,82.43
2022-10-06T05:18:53.267Z,84.14
2022-10-06T05:21:22.746Z,83.86
2022-10-06T05:23:51.912Z,84.61
2022-10-06T05:26:22.091Z,83.67
2022-10-06T05:28:50.450Z,83.90
2022-10-06T05:31:20.207Z,83.79
2022-10-06T05:33:48.905Z,83.81
2022-10-06T05:36:18.150Z,84.01
2022-10-06T05:38:46.380Z,83.92
2022-10-06T05:41:17.298Z,83.60
2022-10-06T05:43:45.459Z,82.94
2022-10-06T05:46:17.531Z,83.82
2022-10-06T05:48:46.792Z,82.80
2022-10-06T05:51:14.924Z,82.31
2022-10-06T05:53:42.713Z,81.73
2022-10-06T05:56:13.164Z,81.97
2022-10-06T05:58:44.585Z,81.99
2022-10-06T06:01:15.054Z,83.18
2022-10-06T06:03:47.458Z,83.02
2022-10-06T06:06:20.775Z,82.60
2022-10-06T06:08:52.405Z,81.45
2022-10-06T06:11:25.358Z,80.55
2022-10-06T06:13:57.299Z,81.67
2022-10-06T06:16:24.971Z,80.79
2022-10-06T06:18:53.410Z,79.80
2022-10-06T06:21:21.736Z,78.58
2022-10-06T06:23:50.127Z,80.46
2022-10-06T06:26:19.900Z,80.98
2022-10-06T06:28:48.578Z,79.82
2022-10-06T06:31:20.615Z,79.82
2022-10-06T06:33:49.860Z,79.23
2022-10-06T06:36:19.995Z,80.58
2022-10-06T06:38:49.694Z,78.28
2022-10-06T06:41:18.770Z,77.74
2022-10-06T06:43:47.527Z,77.48
2022-10-06T06:46:17.960Z,78.60
2022-10-06T06:48:47.176Z,77.22
2022-10-06T06:51:15.175Z,76.80
2022-10-06T06:53:43.019Z,77.66
2022-10-06T06:56:10.911Z,76.15
2022-10-06T06:58:39.137Z,75.11
2022-10-06T07:01:12.107Z,76.31
2022-10-06T07:03:58.576Z,76.25
2022-10-06T07:06:29.311Z,76.03
2022-10-06T07:08:58.280Z,77.07
2022-10-06T07:11:27.890Z,75.44
2022-10-06T07:13:58.129Z,75.70
2022-10-06T07:16:43.632Z,72.10
2022-10-06T07:19:32.278Z,75.84
2022-10-06T07:22:20.303Z,75.71
2022-10-06T07:25:05.732Z,75.73
2022-10-06T07:27:35.952Z,73.81
2022-10-06T07:30:04.078Z,75.46
2022-10-06T07:32:31.822Z,75.66
2022-10-06T07:35:00.915Z,72.67
2022-10-06T07:37:29.782Z,73.50
2022-10-06T07:39:57.392Z,73.57
2022-10-06T07:42:25.071Z,73.75
2022-10-06T07:45:06.730Z,72.09
2022-10-06T07:47:34.898Z,74.49
2022-10-06T07:50:04.112Z,72.92
2022-10-06T07:52:32.482Z,66.89
2022-10-06T07:55:00.210Z,60.34
2022-10-06T07:57:30.230Z,57.16
2022-10-06T08:00:02.079Z,55.52
2022-10-06T08:02:34.707Z,54.44
2022-10-06T08:05:05.197Z,53.05
2022-10-06T08:07:32.925Z,51.44
2022-10-06T08:10:00.711Z,50.58
2022-10-06T08:12:34.670Z,49.61
2022-10-06T08:15:07.032Z,51.97
2022-10-06T08:17:36.883Z,47.63
2022-10-06T08:20:07.888Z,48.75
2022-10-06T08:22:36.811Z,52.29
2022-10-06T08:25:06.513Z,50.98
2022-10-06T08:27:35.634Z,52.17
2022-10-06T08:30:04.394Z,51.80
2022-10-06T08:32:33.063Z,51.46
2022-10-06T08:35:00.737Z,50.62
2022-10-06T08:37:29.779Z,50.27
2022-10-06T08:39:58.380Z,50.61
2022-10-06T08:42:35.417Z,49.82
2022-10-06T08:45:07.410Z,47.62
2022-10-06T08:47:36.495Z,50.66
2022-10-06T08:50:12.726Z,52.68
2022-10-06T08:52:51.878Z,57.18
2022-10-06T08:55:38.774Z,60.09
2022-10-06T08:58:22.735Z,62.77
2022-10-06T09:00:53.223Z,64.76
2022-10-06T09:03:30.489Z,64.47
2022-10-06T09:06:09.489Z,64.43
2022-10-06T09:08:50.898Z,64.97
2022-10-06T09:11:34.858Z,66.71
2022-10-06T09:14:09.773Z,66.86
2022-10-06T09:16:42.071Z,65.40
2022-10-06T09:19:16.777Z,64.52
2022-10-06T09:21:48.728Z,66.22
2022-10-06T09:24:19.480Z,66.17
2022-10-06T09:26:51.834Z,64.60
2022-10-06T09:29:19.580Z,64.82
2022-10-06T09:31:50.616Z,64.01
2022-10-06T09:34:25.688Z,64.67
2022-10-06T09:37:02.743Z,63.91
2022-10-06T09:39:36.568Z,65.08
2022-10-06T09:42:12.359Z,64.02
2022-10-06T09:44:48.141Z,63.31
2022-10-06T09:47:31.873Z,61.53
2022-10-06T09:50:17.631Z,61.70
2022-10-06T09:53:04.253Z,62.33
2022-10-06T09:55:41.356Z,65.33
2022-10-06T09:58:21.486Z,61.44
2022-10-06T10:00:55.170Z,62.96
2022-10-06T10:03:25.998Z,62.32
2022-10-06T10:05:56.106Z,62.80
2022-10-06T10:08:26.187Z,61.96
2022-10-06T10:11:32.588Z,62.41
2022-10-06T10:14:01.023Z,62.15
2022-10-06T10:16:34.630Z,63.27
2022-10-06T10:19:05.612Z,62.24
2022-10-06T10:21:35.528Z,62.19
2022-10-06T10:24:07.692Z,64.08
2022-10-06T10:26:50.084Z,62.26
2022-10-06T10:29:45.438Z,61.17
2022-10-06T10:32:19.666Z,61.73
2022-10-06T10:35:16.545Z,61.40
2022-10-06T10:37:51.294Z,61.26
2022-10-06T10:40:42.918Z,60.31
2022-10-06T10:43:27.529Z,61.02
2022-10-06T10:46:00.335Z,59.58
2022-10-06T10:48:31.982Z,59.81
2022-10-06T10:51:07.628Z,60.18
2022-10-06T10:53:45.401Z,61.77
2022-10-06T10:56:16.186Z,61.63
2022-10-06T10:58:46.843Z,59.27
2022-10-06T11:01:25.685Z,59.53
2022-10-06T11:03:57.522Z,59.37
2022-10-06T11:06:47.413Z,58.57
2022-10-06T11:09:18.504Z,58.75
2022-10-06T11:11:58.713Z,59.89
2022-10-06T11:14:46.875Z,60.01
2022-10-06T11:17:26.047Z,60.24
2022-10-06T11:20:04.331Z,60.23
2022-10-06T11:22:42.514Z,59.51
2022-10-06T11:25:26.961Z,59.10
2022-10-06T11:28:05.373Z,59.61
2022-10-06T11:30:39.206Z,59.46
2022-10-06T11:33:17.018Z,60.05
2022-10-06T11:35:48.275Z,59.25
2022-10-06T11:38:25.267Z,57.99
2022-10-06T11:41:09.882Z,58.35
2022-10-06T11:43:46.776Z,58.21
2022-10-06T11:46:31.767Z,59.49
2022-10-06T11:49:39.585Z,59.47
2022-10-06T11:52:45.572Z,59.51
2022-10-06T11:55:26.254Z,59.37
2022-10-06T12:01:02.389Z,58.16
2022-10-06T12:03:49.633Z,57.18
2022-10-06T12:06:58.737Z,57.15
2022-10-06T12:09:52.013Z,57.62
2022-10-06T12:13:05.306Z,57.26
2022-10-06T12:19:04.205Z,57.53
2022-10-06T12:21:45.662Z,57.04
2022-10-06T12:24:25.764Z,56.22
2022-10-06T12:27:07.398Z,54.04
2022-10-06T12:29:47.258Z,55.14
2022-10-06T12:32:34.796Z,55.72
2022-10-06T12:35:16.500Z,55.98
2022-10-06T12:37:50.179Z,56.86
2022-10-06T12:40:50.079Z,55.97
2022-10-06T12:43:50.425Z,57.17
2022-10-06T12:46:30.037Z,57.21
2022-10-06T12:49:25.267Z,55.89
2022-10-06T12:51:57.903Z,55.48
2022-10-06T12:54:34.843Z,56.26
2022-10-06T12:57:04.211Z,54.77
2022-10-06T12:59:33.826Z,54.98
2022-10-06T13:02:03.955Z,55.21
2022-10-06T13:04:34.517Z,54.70
2022-10-06T13:07:09.803Z,55.20
2022-10-06T13:09:37.732Z,56.22
2022-10-06T13:12:31.774Z,56.18
2022-10-06T13:15:23.756Z,55.05
2022-10-06T13:17:53.988Z,55.78
2022-10-06T13:20:25.396Z,55.02
2022-10-06T13:22:59.663Z,55.45
2022-10-06T13:25:36.593Z,54.25
2022-10-06T13:28:04.565Z,54.87
2022-10-06T13:30:37.693Z,55.03
2022-10-06T13:33:08.611Z,55.12
2022-10-06T13:35:36.496Z,54.05
2022-10-06T13:38:06.409Z,53.00
2022-10-06T13:40:44.197Z,53.26
2022-10-06T13:43:18.070Z,54.69
2022-10-06T13:45:48.322Z,53.77
2022-10-06T13:48:21.174Z,52.68
2022-10-06T13:50:50.099Z,52.41
2022-10-06T13:53:28.736Z,53.19
2022-10-06T13:55:56.740Z,53.46
2022-10-06T13:58:28.179Z,53.00
2022-10-06T14:00:58.157Z,52.49
2022-10-06T14:03:28.701Z,52.77
2022-10-06T14:06:09.853Z,52.60
2022-10-06T14:08:39.392Z,52.28
2022-10-06T14:11:09.025Z,52.21
2022-10-06T14:13:45.098Z,51.70
2022-10-06T14:16:21.765Z,52.94
2022-10-06T14:21:41.369Z,52.09
2022-10-06T14:24:26.063Z,52.23
2022-10-06T14:26:54.845Z,52.38
2022-10-06T14:29:23.526Z,52.54
2022-10-06T14:31:51.429Z,53.29
2022-10-06T14:34:21.713Z,53.73
2022-10-06T14:36:52.468Z,53.64
2022-10-06T14:39:21.932Z,53.16
2022-10-06T14:41:49.911Z,53.27
2022-10-06T14:44:17.631Z,53.70
2022-10-06T14:46:48.785Z,53.90
2022-10-06T14:49:16.733Z,53.53
2022-10-06T14:51:45.538Z,52.40
2022-10-06T14:54:13.752Z,54.08
2022-10-06T14:56:43.678Z,54.91
2022-10-06T14:59:16.898Z,53.21
2022-10-06T15:01:45.742Z,53.61
2022-10-06T15:04:14.603Z,53.17
2022-10-06T15:07:00.352Z,52.95
2022-10-06T15:09:30.852Z,52.89
2022-10-06T15:12:01.031Z,52.30
2022-10-06T15:14:29.515Z,52.74
2022-10-06T15:16:59.161Z,53.56
2022-10-06T15:19:27.201Z,53.17
2022-10-06T15:21:54.923Z,52.85
2022-10-06T15:24:22.730Z,52.62
2022-10-06T15:27:08.336Z,52.89
2022-10-06T15:29:37.423Z,52.89
2022-10-06T15:32:06.661Z,53.59
2022-10-06T15:34:36.955Z,53.87
2022-10-06T15:37:05.123Z,54.23
2022-10-06T15:39:36.676Z,54.61
2022-10-06T15:42:05.155Z,55.89
2022-10-06T15:44:34.595Z,55.80
2022-10-06T15:47:05.966Z,56.49
2022-10-06T15:49:38.160Z,55.77
2022-10-06T15:52:06.942Z,55.10
2022-10-06T15:54:37.513Z,56.08
2022-10-06T15:57:08.652Z,56.03
2022-10-06T15:59:37.176Z,56.21
2022-10-06T16:02:09.875Z,55.96
2022-10-06T16:04:55.120Z,56.19
2022-10-06T16:07:22.975Z,57.77
2022-10-06T16:09:52.208Z,57.07
2022-10-06T16:12:21.941Z,57.88
2022-10-06T16:14:50.038Z,57.37
2022-10-06T16:17:19.712Z,57.45
2022-10-06T16:19:47.739Z,57.82
2022-10-06T16:22:18.203Z,57.63
2022-10-06T16:24:46.147Z,57.84
2022-10-06T16:27:14.867Z,58.73
2022-10-06T16:29:42.581Z,59.44
2022-10-06T16:32:10.770Z,58.24
2022-10-06T16:34:39.872Z,60.15
2022-10-06T16:37:07.579Z,59.47
2022-10-06T16:39:35.393Z,59.18
2022-10-06T16:42:03.721Z,59.83
2022-10-06T16:44:31.378Z,60.17
2022-10-06T16:46:59.288Z,60.11
2022-10-06T16:49:28.268Z,60.19
2022-10-06T16:51:57.493Z,60.06
2022-10-06T16:54:25.599Z,60.68
2022-10-06T16:56:54.353Z,60.93
2022-10-06T16:59:24.191Z,61.38
2022-10-06T17:01:52.072Z,62.49
2022-10-06T17:04:21.341Z,63.36
2022-10-06T17:06:50.697Z,63.59
2022-10-06T17:09:21.877Z,62.27
2022-10-06T17:11:51.643Z,63.04
2022-10-06T17:14:21.261Z,62.39
2022-10-06T17:16:51.805Z,61.73
2022-10-06T17:19:21.761Z,62.74
2022-10-06T17:21:54.090Z,63.25
2022-10-06T17:24:28.029Z,63.49
2022-10-06T17:26:57.216Z,62.93
2022-10-06T17:29:26.665Z,63.75
2022-10-06T17:31:58.980Z,63.69
2022-10-06T17:34:32.500Z,62.93
2022-10-06T17:37:02.215Z,63.79
2022-10-06T17:39:32.137Z,63.60
2022-10-06T17:42:00.064Z,63.22
2022-10-06T17:44:29.308Z,64.57
2022-10-06T17:46:59.085Z,65.15
2022-10-06T17:49:28.654Z,66.39
2022-10-06T17:51:56.788Z,65.42
2022-10-06T17:54:27.049Z,66.70
2022-10-06T17:56:58.872Z,66.32
2022-10-06T17:59:30.222Z,66.87
2022-10-06T18:02:00.596Z,65.64
2022-10-06T18:04:28.918Z,65.33
2022-10-06T18:06:57.422Z,66.00
2022-10-06T18:09:25.551Z,66.82
2022-10-06T18:11:56.134Z,66.71
2022-10-06T18:14:28.132Z,66.72
2022-10-06T18:16:58.987Z,67.21
2022-10-06T18:19:30.191Z,67.21
2022-10-06T18:22:00.531Z,67.40
2022-10-06T18:24:30.903Z,68.47
2022-10-06T18:27:00.944Z,67.13
2022-10-06T18:29:33.893Z,68.03
2022-10-06T18:32:56.655Z,68.15
2022-10-06T18:37:39.682Z,66.75
2022-10-06T18:40:09.948Z,68.12
2022-10-06T18:42:37.925Z,68.51
2022-10-06T18:45:26.789Z,68.75
2022-10-06T18:48:12.233Z,69.21
2022-10-06T18:50:40.124Z,69.35
2022-10-06T18:53:07.964Z,69.32
2022-10-06T18:55:35.857Z,70.42
2022-10-06T18:58:04.623Z,71.93
2022-10-06T19:00:34.221Z,69.47
2022-10-06T19:03:02.016Z,69.20
2022-10-06T19:05:30.934Z,70.02
2022-10-06T19:07:58.833Z,70.75
2022-10-06T19:10:26.726Z,70.44
2022-10-06T19:12:54.479Z,71.63
2022-10-06T19:15:22.496Z,70.70
2022-10-06T19:17:51.677Z,70.38
2022-10-06T19:20:19.624Z,71.09
2022-10-06T19:22:48.352Z,72.72
2022-10-06T19:25:18.652Z,71.59
2022-10-06T19:27:46.681Z,70.52
2022-10-06T19:30:14.527Z,71.67
2022-10-06T19:32:42.335Z,73.21
2022-10-06T19:35:12.563Z,72.75
2022-10-06T19:37:41.051Z,72.03
2022-10-06T19:40:11.339Z,70.33
2022-10-06T19:42:51.254Z,71.59
2022-10-06T19:45:20.987Z,71.45
2022-10-06T19:47:48.923Z,71.59
2022-10-06T19:50:18.379Z,71.19
2022-10-06T19:52:46.428Z,71.43
2022-10-06T19:55:14.298Z,72.24
2022-10-06T19:57:42.911Z,72.17
2022-10-06T20:00:12.235Z,72.34
2022-10-06T20:02:42.867Z,72.97
2022-10-06T20:05:11.850Z,73.60
2022-10-06T20:07:41.687Z,74.96
2022-10-06T20:10:09.722Z,73.09
2022-10-06T20:12:38.344Z,73.42
2022-10-06T20:15:07.156Z,73.57
2022-10-06T20:17:35.347Z,73.87
2022-10-06T20:20:03.193Z,72.70
2022-10-06T20:22:31.706Z,73.83
2022-10-06T20:25:02.362Z,74.75
2022-10-06T20:27:30.105Z,73.39
2022-10-06T20:29:58.249Z,74.01
2022-10-06T20:32:25.953Z,73.99
2022-10-06T20:34:53.724Z,75.01
2022-10-06T20:37:21.504Z,75.69
2022-10-06T20:40:06.620Z,73.33
2022-10-06T20:42:35.696Z,72.66
2022-10-06T20:45:03.475Z,73.92
2022-10-06T20:47:31.248Z,73.44
2022-10-06T20:49:59.122Z,72.92
2022-10-06T20:52:26.890Z,72.78
2022-10-06T20:54:54.854Z,74.00
2022-10-06T20:57:22.877Z,74.35
2022-10-06T20:59:52.717Z,73.00
2022-10-06T21:02:20.537Z,74.19
2022-10-06T21:04:48.226Z,74.74
2022-10-06T21:07:15.907Z,74.75
2022-10-06T21:09:44.932Z,73.79
2022-10-06T21:12:16.054Z,75.09
2022-10-06T21:14:43.898Z,76.12
2022-10-06T21:17:12.916Z,75.36
2022-10-06T21:19:40.633Z,74.34
2022-10-06T21:22:08.303Z,74.98
2022-10-06T21:24:36.012Z,75.29
2022-10-06T21:27:03.657Z,75.64
2022-10-06T21:29:31.449Z,74.65
2022-10-06T21:31:59.611Z,74.94
2022-10-06T21:34:28.586Z,75.39
2022-10-06T21:36:56.586Z,75.53
2022-10-06T21:39:24.234Z,76.13
2022-10-06T21:41:51.954Z,76.13
2022-10-06T21:44:19.955Z,76.02
2022-10-06T21:46:49.415Z,76.96
2022-10-06T21:49:19.714Z,77.47
2022-10-06T21:51:50.841Z,77.73
2022-10-06T21:54:19.204Z,76.27
2022-10-06T21:56:47.384Z,76.75
2022-10-06T21:59:15.490Z,76.71
2022-10-06T22:01:44.859Z,77.56
2022-10-06T22:04:14.261Z,77.83
2022-10-06T22:06:42.898Z,77.92
2022-10-06T22:09:15.913Z,77.14
2022-10-06T22:11:44.364Z,78.43
2022-10-06T22:14:14.271Z,78.88
2022-10-06T22:16:42.318Z,77.16
2022-10-06T22:19:12.014Z,79.34
2022-10-06T22:21:41.827Z,78.52
2022-10-06T22:24:13.413Z,79.23
2022-10-06T22:26:42.497Z,77.21
2022-10-06T22:29:12.414Z,78.21
2022-10-06T22:31:42.493Z,78.15
2022-10-06T22:34:12.010Z,78.08
2022-10-06T22:36:40.823Z,78.22
2022-10-06T22:39:08.899Z,78.74
2022-10-06T22:41:38.389Z,79.11
2022-10-06T22:44:06.279Z,80.85
2022-10-06T22:46:36.195Z,79.93
2022-10-06T22:49:04.282Z,78.39
2022-10-06T22:51:33.037Z,79.49
2022-10-06T22:54:01.000Z,80.21
2022-10-06T22:56:30.257Z,78.63
2022-10-06T22:59:00.330Z,78.01
2022-10-06T23:01:29.853Z,77.97
2022-10-06T23:03:58.272Z,78.67
2022-10-06T23:06:26.691Z,80.31
2022-10-06T23:08:54.363Z,80.69
2022-10-06T23:11:23.399Z,78.68
2022-10-06T23:13:52.959Z,78.55
2022-10-06T23:16:22.808Z,78.17
2022-10-06T23:18:50.762Z,79.05
2022-10-06T23:21:21.643Z,79.67
2022-10-06T23:23:51.278Z,79.56
2022-10-06T23:26:19.951Z,80.15
2022-10-06T23:28:52.315Z,78.57
2022-10-06T23:31:20.045Z,80.59
2022-10-06T23:33:49.188Z,79.27
2022-10-06T23:36:17.695Z,80.40
2022-10-06T23:38:45.759Z,80.62
2022-10-06T23:41:14.232Z,81.36
2022-10-06T23:43:41.958Z,81.12
2022-10-06T23:46:09.933Z,81.97
2022-10-06T23:48:37.734Z,82.22
2022-10-06T23:51:09.211Z,81.00
2022-10-06T23:53:37.179Z,81.13
2022-10-06T23:56:05.442Z,81.19
2022-10-06T23:58:33.177Z,81.52
